createdAt,value
2023-02-14T00:03:53.049Z,45.22
2023-02-14T00:08:58.278Z,47.70
2023-02-14T00:14:19.678Z,43.15
2023-02-14T00:19:24.286Z,41.58
2023-02-14T00:24:29.768Z,41.25
2023-02-14T00:29:34.249Z,36.75
2023-02-14T00:34:38.493Z,40.25
2023-02-14T00:39:43.597Z,43.70
2023-02-14T00:44:47.387Z,42.65
2023-02-14T00:49:51.129Z,47.88
2023-02-14T00:54:59.119Z,41.97
2023-02-14T01:00:03.120Z,42.22
2023-02-14T01:05:07.541Z,44.42
2023-02-14T01:10:14.523Z,43.97
2023-02-14T01:15:18.469Z,45.88
2023-02-14T01:20:22.559Z,45.83
2023-02-14T01:25:28.070Z,45.72
2023-02-14T01:30:32.178Z,42.53
2023-02-14T01:35:38.807Z,46.10
2023-02-14T01:40:45.497Z,42.22
2023-02-14T01:45:49.356Z,45.47
2023-02-14T01:50:56.067Z,45.17
2023-02-14T01:56:05.658Z,44.00
2023-02-14T02:01:18.695Z,46.10
2023-02-14T02:06:27.199Z,51.92
2023-02-14T02:11:33.199Z,56.45
2023-02-14T02:17:01.033Z,53.25
2023-02-14T02:22:39.415Z,49.92
2023-02-14T02:28:10.632Z,45.12
2023-02-14T02:33:45.192Z,50.12
2023-02-14T02:39:05.564Z,47.28
2023-02-14T02:44:17.765Z,49.38
2023-02-14T02:49:51.929Z,45.58
2023-02-14T02:55:04.582Z,48.67
2023-02-14T03:00:12.346Z,46.58
2023-02-14T03:05:17.417Z,45.05
2023-02-14T03:10:26.217Z,47.62
2023-02-14T03:15:53.043Z,45.80
2023-02-14T03:21:04.687Z,50.70
2023-02-14T03:26:15.794Z,51.40
2023-02-14T03:31:28.688Z,48.05
2023-02-14T03:36:39.141Z,47.10
2023-02-14T03:41:49.326Z,47.22
2023-02-14T03:46:59.081Z,54.25
2023-02-14T03:52:05.623Z,48.55
2023-02-14T03:57:21.838Z,48.87
2023-02-14T04:02:32.668Z,40.72
2023-02-14T04:07:46.318Z,50.70
2023-02-14T04:12:51.808Z,46.13
2023-02-14T04:18:13.390Z,42.28
2023-02-14T04:23:17.127Z,42.25
2023-02-14T04:28:22.325Z,46.00
2023-02-14T04:33:26.041Z,48.15
2023-02-14T04:38:29.938Z,44.55
2023-02-14T04:43:35.020Z,46.95
2023-02-14T04:48:38.756Z,38.13
2023-02-14T04:53:43.239Z,42.25
2023-02-14T04:58:48.318Z,45.12
2023-02-14T05:03:52.100Z,43.33
2023-02-14T05:08:56.744Z,40.15
2023-02-14T05:14:01.910Z,42.70
2023-02-14T05:19:05.628Z,37.92
2023-02-14T05:24:11.527Z,38.88
2023-02-14T05:29:16.653Z,39.20
2023-02-14T05:34:21.734Z,38.92
2023-02-14T05:39:25.694Z,49.03
2023-02-14T05:44:30.948Z,39.33
2023-02-14T05:49:36.168Z,42.72
2023-02-14T05:54:39.989Z,41.92
2023-02-14T05:59:45.081Z,38.80
2023-02-14T06:04:49.048Z,40.35
2023-02-14T06:09:53.089Z,39.17
2023-02-14T06:14:58.236Z,44.67
2023-02-14T06:20:02.014Z,49.53
2023-02-14T06:25:06.891Z,46.00
2023-02-14T06:30:13.889Z,40.85
2023-02-14T06:35:17.736Z,43.42
2023-02-14T06:40:21.959Z,42.78
2023-02-14T06:45:27.071Z,46.70
2023-02-14T06:50:30.869Z,45.45
2023-02-14T06:55:34.606Z,42.83
2023-02-14T07:00:40.730Z,49.95
2023-02-14T07:05:45.317Z,51.30
2023-02-14T07:10:49.073Z,45.45
2023-02-14T07:15:54.318Z,44.45
2023-02-14T07:20:58.662Z,47.67
2023-02-14T07:26:03.217Z,46.22
2023-02-14T07:31:08.722Z,57.75
2023-02-14T07:36:13.180Z,63.30
2023-02-14T07:41:17.034Z,55.45
2023-02-14T07:46:22.237Z,58.70
2023-02-14T07:51:25.960Z,59.47
2023-02-14T07:56:30.064Z,66.93
2023-02-14T08:01:35.287Z,56.75
2023-02-14T08:06:39.047Z,54.80
2023-02-14T08:12:02.751Z,54.38
2023-02-14T08:17:10.026Z,53.80
2023-02-14T08:22:13.817Z,65.20
2023-02-14T08:27:17.639Z,75.25
2023-02-14T08:32:22.829Z,61.17
2023-02-14T08:37:26.782Z,61.37
2023-02-14T08:42:31.115Z,62.45
2023-02-14T08:47:38.325Z,65.72
2023-02-14T08:52:43.750Z,60.58
2023-02-14T08:57:49.333Z,68.53
2023-02-14T09:02:57.318Z,66.85
2023-02-14T09:08:03.243Z,57.28
2023-02-14T09:13:07.432Z,54.75
2023-02-14T09:18:12.726Z,54.80
2023-02-14T09:23:16.529Z,55.38
2023-02-14T09:28:20.264Z,48.33
2023-02-14T09:33:25.465Z,50.75
2023-02-14T09:38:29.176Z,49.33
2023-02-14T09:43:38.145Z,45.38
2023-02-14T09:48:47.351Z,43.72
2023-02-14T09:53:58.078Z,38.70
2023-02-14T09:59:10.918Z,43.20
2023-02-14T10:04:28.450Z,39.08
2023-02-14T10:09:47.504Z,41.93
2023-02-14T10:14:53.135Z,38.53
2023-02-14T10:20:02.753Z,39.50
2023-02-14T10:25:15.182Z,39.50
2023-02-14T10:30:21.469Z,40.42
2023-02-14T10:35:36.483Z,42.58
2023-02-14T10:41:06.084Z,37.33
2023-02-14T10:46:18.204Z,34.47
2023-02-14T10:51:33.854Z,37.70
2023-02-14T10:56:43.733Z,33.50
2023-02-14T11:01:48.627Z,32.47
2023-02-14T11:06:53.891Z,30.30
2023-02-14T11:12:00.517Z,32.35
2023-02-14T11:17:29.155Z,34.63
2023-02-14T11:22:36.202Z,35.42
2023-02-14T11:27:40.067Z,24.15
2023-02-14T11:32:43.805Z,30.48
2023-02-14T11:37:53.470Z,26.65
2023-02-14T11:43:13.330Z,25.83
2023-02-14T11:48:36.576Z,28.00
2023-02-14T11:53:49.349Z,25.75
2023-02-14T11:58:59.360Z,24.08
2023-02-14T12:04:14.873Z,25.62
2023-02-14T12:09:29.443Z,27.23
2023-02-14T12:14:35.249Z,22.42
2023-02-14T12:19:46.064Z,25.48
2023-02-14T12:25:01.463Z,24.08
2023-02-14T12:30:12.638Z,24.42
2023-02-14T12:35:23.082Z,25.67
2023-02-14T12:40:39.434Z,25.08
2023-02-14T12:46:04.079Z,25.33
2023-02-14T12:51:15.239Z,28.38
2023-02-14T12:56:29.313Z,24.92
2023-02-14T13:01:58.252Z,24.80
2023-02-14T13:07:09.931Z,26.60
2023-02-14T13:12:35.430Z,25.75
2023-02-14T13:17:44.588Z,26.70
2023-02-14T13:22:49.927Z,24.65
2023-02-14T13:27:55.224Z,24.77
2023-02-14T13:33:04.568Z,24.83
2023-02-14T13:38:14.016Z,25.70
2023-02-14T13:43:51.462Z,25.90
2023-02-14T13:49:02.489Z,22.83
2023-02-14T13:54:23.876Z,27.95
2023-02-14T13:59:31.339Z,26.33
2023-02-14T14:09:54.821Z,24.12
2023-02-14T14:15:20.708Z,24.40
2023-02-14T14:20:46.016Z,26.70
2023-02-14T14:25:49.780Z,24.75
2023-02-14T14:30:53.817Z,24.63
2023-02-14T14:36:02.441Z,25.85
2023-02-14T14:41:06.929Z,24.35
2023-02-14T14:46:13.671Z,25.17
2023-02-14T14:51:24.831Z,22.37
2023-02-14T14:56:31.762Z,29.10
2023-02-14T15:01:39.478Z,24.63
2023-02-14T15:06:44.684Z,25.12
2023-02-14T15:12:07.251Z,25.23
2023-02-14T15:17:19.421Z,29.20
2023-02-14T15:22:29.906Z,27.73
2023-02-14T15:27:35.064Z,25.25
2023-02-14T15:32:39.478Z,26.85
2023-02-14T15:37:45.447Z,27.90
2023-02-14T15:42:50.630Z,28.73
2023-02-14T15:47:57.001Z,31.23
2023-02-14T15:53:06.562Z,29.58
2023-02-14T15:58:23.497Z,29.75
2023-02-14T16:03:29.370Z,30.20
2023-02-14T16:08:36.157Z,30.85
2023-02-14T16:13:42.011Z,35.70
2023-02-14T16:18:50.760Z,31.75
2023-02-14T16:24:14.745Z,36.42
2023-02-14T16:29:20.933Z,34.78
2023-02-14T16:34:25.190Z,33.90
2023-02-14T16:39:30.378Z,35.35
2023-02-14T16:44:34.449Z,37.17
2023-02-14T16:49:38.238Z,43.33
2023-02-14T16:54:44.074Z,36.72
2023-02-14T16:59:48.218Z,43.60
2023-02-14T17:04:52.103Z,39.22
2023-02-14T17:10:02.311Z,40.88
2023-02-14T17:15:11.771Z,42.15
2023-02-14T17:20:16.474Z,40.42
2023-02-14T17:25:21.562Z,45.20
2023-02-14T17:30:28.128Z,39.92
2023-02-14T17:35:32.080Z,45.15
2023-02-14T17:40:37.201Z,44.08
2023-02-14T17:45:41.003Z,45.40
2023-02-14T17:50:44.776Z,44.97
2023-02-14T17:55:49.941Z,44.22
2023-02-14T18:00:53.693Z,42.03
2023-02-14T18:05:58.315Z,43.05
2023-02-14T18:11:05.637Z,42.17
2023-02-14T18:16:11.709Z,49.08
2023-02-14T18:21:18.958Z,48.25
2023-02-14T18:26:24.091Z,45.92
2023-02-14T18:31:27.930Z,55.03
2023-02-14T18:36:32.569Z,52.10
2023-02-14T18:41:37.929Z,48.40
2023-02-14T18:46:41.727Z,52.17
2023-02-14T18:51:45.657Z,49.40
2023-02-14T18:56:50.850Z,50.88
2023-02-14T19:01:54.649Z,59.15
2023-02-14T19:06:58.667Z,60.85
2023-02-14T19:12:03.935Z,67.00
2023-02-14T19:17:08.241Z,62.80
2023-02-14T19:22:12.131Z,66.93
2023-02-14T19:27:17.656Z,71.53
2023-02-14T19:32:21.521Z,68.55
2023-02-14T19:37:26.714Z,80.65
2023-02-14T19:42:31.827Z,80.70
2023-02-14T19:47:46.632Z,85.90
2023-02-14T19:52:51.479Z,87.37
2023-02-14T19:57:57.888Z,89.20
2023-02-14T20:03:02.006Z,85.87
2023-02-14T20:08:06.098Z,83.65
2023-02-14T20:13:11.510Z,83.03
2023-02-14T20:18:15.514Z,83.25
2023-02-14T20:23:19.348Z,88.80
2023-02-14T20:28:24.470Z,79.78
2023-02-14T20:33:28.284Z,80.45
2023-02-14T20:38:32.078Z,74.32
2023-02-14T20:43:37.685Z,74.62
2023-02-14T20:48:41.430Z,77.47
2023-02-14T20:53:46.206Z,76.20
2023-02-14T20:58:51.708Z,67.78
2023-02-14T21:03:55.732Z,78.65
2023-02-14T21:09:00.564Z,74.87
2023-02-14T21:14:05.744Z,74.05
2023-02-14T21:19:09.931Z,78.93
2023-02-14T21:24:15.725Z,70.50
2023-02-14T21:29:20.996Z,71.62
2023-02-14T21:34:26.898Z,76.93
2023-02-14T21:39:31.092Z,74.93
2023-02-14T21:44:53.824Z,71.97
2023-02-14T21:50:23.900Z,74.03
2023-02-14T21:55:27.656Z,71.62
2023-02-14T22:00:32.823Z,70.43
2023-02-14T22:05:43.721Z,75.03
2023-02-14T22:10:47.554Z,67.55
2023-02-14T22:15:52.965Z,71.43
2023-02-14T22:21:01.093Z,74.28
2023-02-14T22:26:13.555Z,63.65
2023-02-14T22:31:19.954Z,72.90
2023-02-14T22:36:23.733Z,80.70
2023-02-14T22:41:28.620Z,74.72
2023-02-14T22:46:36.699Z,68.50
2023-02-14T22:51:42.229Z,73.90
2023-02-14T22:56:47.664Z,79.93
2023-02-14T23:01:53.957Z,75.90
2023-02-14T23:06:58.164Z,76.30
2023-02-14T23:12:01.971Z,73.43
2023-02-14T23:17:25.629Z,75.28
2023-02-14T23:22:31.248Z,69.70
2023-02-14T23:27:37.492Z,69.10
2023-02-14T23:32:42.730Z,72.37
2023-02-14T23:37:46.493Z,73.93
2023-02-14T23:42:50.320Z,72.62
2023-02-14T23:47:55.386Z,71.85
2023-02-14T23:52:59.183Z,73.43
2023-02-14T23:58:02.992Z,68.82
